createdAt,value
2023-02-15T00:00:37.340Z,7.00
2023-02-15T00:03:05.492Z,6.70
2023-02-15T00:05:33.625Z,8.13
2023-02-15T00:08:01.697Z,7.17
2023-02-15T00:10:29.844Z,7.17
2023-02-15T00:12:59.214Z,5.97
2023-02-15T00:15:27.522Z,6.57
2023-02-15T00:17:55.532Z,5.73
2023-02-15T00:20:23.644Z,6.27
2023-02-15T00:22:51.646Z,6.47
2023-02-15T00:25:19.658Z,6.43
2023-02-15T00:27:47.675Z,5.83
2023-02-15T00:30:17.717Z,5.77
2023-02-15T00:32:45.825Z,5.20
2023-02-15T00:35:13.892Z,5.60
2023-02-15T00:37:41.968Z,5.47
2023-02-15T00:40:11.380Z,6.07
2023-02-15T00:42:39.445Z,4.77
2023-02-15T00:45:08.828Z,4.83
2023-02-15T00:47:38.242Z,5.50
2023-02-15T00:50:08.299Z,4.77
2023-02-15T00:52:36.352Z,5.03
2023-02-15T00:55:05.222Z,5.07
2023-02-15T00:57:34.033Z,5.13
2023-02-15T01:00:02.094Z,5.00
2023-02-15T01:02:30.221Z,5.40
2023-02-15T01:04:59.615Z,5.17
2023-02-15T01:07:27.729Z,5.03
2023-02-15T01:09:55.756Z,5.90
2023-02-15T01:12:23.826Z,5.43
2023-02-15T01:14:51.950Z,5.73
2023-02-15T01:17:21.392Z,5.37
2023-02-15T01:19:49.646Z,5.43
2023-02-15T01:22:19.223Z,5.33
2023-02-15T01:24:47.535Z,6.03
2023-02-15T01:27:15.677Z,5.37
2023-02-15T01:29:45.724Z,6.63
2023-02-15T01:32:13.779Z,5.87
2023-02-15T01:34:44.631Z,6.30
2023-02-15T01:37:12.728Z,5.73
2023-02-15T01:39:42.107Z,5.27
2023-02-15T01:42:12.404Z,5.47
2023-02-15T01:45:00.187Z,5.13
2023-02-15T01:47:37.408Z,5.50
2023-02-15T01:50:11.987Z,5.37
2023-02-15T01:52:46.173Z,4.93
2023-02-15T01:55:16.790Z,5.97
2023-02-15T01:57:47.507Z,5.07
2023-02-15T02:00:18.488Z,5.17
2023-02-15T02:02:53.157Z,5.90
2023-02-15T02:05:23.202Z,5.37
2023-02-15T02:07:56.179Z,5.60
2023-02-15T02:10:26.907Z,4.80
2023-02-15T02:13:00.886Z,5.90
2023-02-15T02:15:46.257Z,5.10
2023-02-15T02:18:34.736Z,5.43
2023-02-15T02:21:54.238Z,5.87
2023-02-15T02:25:00.164Z,4.97
2023-02-15T02:27:43.585Z,5.43
2023-02-15T02:30:50.869Z,5.93
2023-02-15T02:33:38.430Z,5.33
2023-02-15T02:36:21.467Z,6.40
2023-02-15T02:39:14.765Z,6.00
2023-02-15T02:41:55.294Z,5.50
2023-02-15T02:44:31.099Z,5.30
2023-02-15T02:47:07.577Z,6.50
2023-02-15T02:49:39.938Z,4.97
2023-02-15T02:52:39.483Z,5.53
2023-02-15T02:55:14.730Z,4.97
2023-02-15T02:57:53.780Z,5.87
2023-02-15T03:00:25.376Z,6.27
2023-02-15T03:03:05.702Z,5.30
2023-02-15T03:05:41.357Z,6.00
2023-02-15T03:08:11.401Z,5.23
2023-02-15T03:10:42.889Z,5.80
2023-02-15T03:13:11.264Z,6.47
2023-02-15T03:16:00.877Z,5.97
2023-02-15T03:18:36.527Z,5.50
2023-02-15T03:21:09.548Z,5.67
2023-02-15T03:23:41.601Z,6.57
2023-02-15T03:26:12.081Z,6.43
2023-02-15T03:28:46.449Z,6.93
2023-02-15T03:31:18.311Z,6.83
2023-02-15T03:33:56.074Z,7.10
2023-02-15T03:36:31.099Z,7.00
2023-02-15T03:39:12.454Z,5.60
2023-02-15T03:41:50.302Z,6.30
2023-02-15T03:44:28.677Z,4.90
2023-02-15T03:47:06.597Z,5.80
2023-02-15T03:49:44.030Z,5.17
2023-02-15T03:52:15.720Z,4.80
2023-02-15T03:54:46.650Z,5.30
2023-02-15T03:57:40.229Z,5.70
2023-02-15T04:00:35.034Z,5.13
2023-02-15T04:03:22.950Z,6.40
2023-02-15T04:05:51.563Z,6.10
2023-02-15T04:08:20.955Z,6.87
2023-02-15T04:10:54.205Z,6.73
2023-02-15T04:13:23.386Z,6.23
2023-02-15T04:16:07.371Z,5.20
2023-02-15T04:18:58.117Z,6.60
2023-02-15T04:21:46.492Z,5.73
2023-02-15T04:24:34.781Z,5.20
2023-02-15T04:27:05.144Z,5.53
2023-02-15T04:29:34.053Z,5.40
2023-02-15T04:32:03.405Z,4.83
2023-02-15T04:34:31.493Z,5.27
2023-02-15T04:36:59.565Z,5.13
2023-02-15T04:39:29.038Z,5.40
2023-02-15T04:41:57.104Z,4.50
2023-02-15T04:44:25.215Z,5.17
2023-02-15T04:46:53.298Z,5.10
2023-02-15T04:49:21.361Z,5.37
2023-02-15T04:51:49.482Z,5.30
2023-02-15T04:54:17.571Z,5.00
2023-02-15T04:56:47.121Z,5.83
2023-02-15T04:59:15.625Z,5.33
2023-02-15T05:01:43.722Z,4.67
2023-02-15T05:04:12.123Z,5.00
2023-02-15T05:06:40.241Z,4.47
2023-02-15T05:09:08.305Z,4.60
2023-02-15T05:11:36.322Z,4.53
2023-02-15T05:14:05.868Z,5.30
2023-02-15T05:16:34.006Z,4.60
2023-02-15T05:19:02.148Z,5.27
2023-02-15T05:21:30.287Z,5.37
2023-02-15T05:23:58.426Z,5.23
2023-02-15T05:26:44.748Z,4.93
2023-02-15T05:29:29.100Z,4.73
2023-02-15T05:31:58.081Z,5.03
2023-02-15T05:34:26.356Z,5.50
2023-02-15T05:36:57.080Z,5.93
2023-02-15T05:39:25.240Z,5.43
2023-02-15T05:41:53.455Z,4.87
2023-02-15T05:44:21.629Z,5.30
2023-02-15T05:46:51.042Z,5.47
2023-02-15T05:49:19.091Z,5.40
2023-02-15T05:51:47.211Z,5.20
2023-02-15T05:54:15.289Z,5.10
2023-02-15T05:56:43.380Z,5.97
2023-02-15T05:59:11.582Z,6.03
2023-02-15T06:01:39.726Z,5.70
2023-02-15T06:04:09.218Z,5.47
2023-02-15T06:06:37.352Z,5.80
2023-02-15T06:09:05.615Z,5.47
2023-02-15T06:11:33.687Z,5.90
2023-02-15T06:14:01.763Z,6.03
2023-02-15T06:16:29.953Z,5.53
2023-02-15T06:19:00.023Z,4.80
2023-02-15T06:21:29.554Z,5.13
2023-02-15T06:23:57.647Z,5.27
2023-02-15T06:26:26.433Z,5.10
2023-02-15T06:28:54.539Z,5.47
2023-02-15T06:31:22.678Z,5.73
2023-02-15T06:33:50.764Z,5.97
2023-02-15T06:36:18.859Z,5.90
2023-02-15T06:38:48.302Z,5.60
2023-02-15T06:41:16.485Z,5.67
2023-02-15T06:43:44.539Z,5.67
2023-02-15T06:46:12.626Z,5.83
2023-02-15T06:48:40.697Z,5.63
2023-02-15T06:51:08.768Z,5.30
2023-02-15T06:53:36.915Z,4.97
2023-02-15T06:56:10.035Z,5.07
2023-02-15T06:58:38.620Z,5.37
2023-02-15T07:01:07.417Z,5.97
2023-02-15T07:03:36.239Z,6.17
2023-02-15T07:06:09.090Z,6.30
2023-02-15T07:08:37.802Z,5.07
2023-02-15T07:11:26.090Z,5.27
2023-02-15T07:13:54.277Z,5.40
2023-02-15T07:16:22.854Z,5.53
2023-02-15T07:18:51.083Z,5.20
2023-02-15T07:21:19.096Z,5.90
2023-02-15T07:23:47.272Z,5.43
2023-02-15T07:26:16.654Z,5.23
2023-02-15T07:28:45.181Z,5.57
2023-02-15T07:31:13.376Z,5.87
2023-02-15T07:33:41.580Z,5.43
2023-02-15T07:36:12.930Z,5.50
2023-02-15T07:38:44.051Z,5.77
2023-02-15T07:41:15.165Z,5.47
2023-02-15T07:43:47.030Z,5.43
2023-02-15T07:46:17.875Z,5.60
2023-02-15T07:48:47.036Z,5.70
2023-02-15T07:51:16.710Z,5.40
2023-02-15T07:53:44.879Z,6.70
2023-02-15T07:56:15.573Z,6.43
2023-02-15T07:58:54.908Z,6.33
2023-02-15T08:01:26.041Z,6.67
2023-02-15T08:03:55.606Z,6.53
2023-02-15T08:06:26.377Z,5.70
2023-02-15T08:08:54.980Z,5.83
2023-02-15T08:11:30.027Z,5.93
2023-02-15T08:14:03.520Z,6.27
2023-02-15T08:16:35.399Z,7.40
2023-02-15T08:19:06.036Z,7.77
2023-02-15T08:21:36.755Z,8.63
2023-02-15T08:24:08.228Z,9.20
2023-02-15T08:26:37.388Z,9.57
2023-02-15T08:29:08.189Z,9.70
2023-02-15T08:31:38.488Z,8.50
2023-02-15T08:34:07.679Z,7.23
2023-02-15T08:36:36.379Z,7.93
2023-02-15T08:39:07.388Z,8.03
2023-02-15T08:41:38.387Z,7.63
2023-02-15T08:44:10.542Z,7.73
2023-02-15T08:46:42.424Z,7.47
2023-02-15T08:49:11.809Z,7.83
2023-02-15T08:51:40.923Z,8.10
2023-02-15T08:54:12.186Z,7.43
2023-02-15T08:56:43.053Z,8.90
2023-02-15T08:59:19.095Z,8.73
2023-02-15T09:01:49.763Z,9.63
2023-02-15T09:04:19.020Z,9.30
2023-02-15T09:06:49.982Z,9.23
2023-02-15T09:09:19.661Z,9.53
2023-02-15T09:11:55.803Z,9.67
2023-02-15T09:14:29.273Z,9.50
2023-02-15T09:16:57.749Z,10.27
2023-02-15T09:19:26.676Z,10.60
2023-02-15T09:21:55.424Z,11.17
2023-02-15T09:24:23.997Z,11.73
2023-02-15T09:26:52.225Z,12.60
2023-02-15T09:29:21.687Z,13.20
2023-02-15T09:31:54.367Z,12.80
2023-02-15T09:34:24.508Z,12.53
2023-02-15T09:36:52.992Z,13.57
2023-02-15T09:39:24.558Z,10.70
2023-02-15T09:42:45.821Z,10.93
2023-02-15T09:45:39.318Z,10.77
2023-02-15T09:48:40.593Z,10.10
2023-02-15T09:51:59.935Z,10.57
2023-02-15T09:54:48.586Z,10.00
2023-02-15T09:57:34.185Z,10.83
2023-02-15T10:00:18.536Z,10.73
2023-02-15T10:03:18.597Z,11.50
2023-02-15T10:06:05.778Z,9.90
2023-02-15T10:09:04.299Z,11.27
2023-02-15T10:11:55.681Z,10.73
2023-02-15T10:15:01.192Z,11.30
2023-02-15T10:17:49.921Z,10.63
2023-02-15T10:20:30.754Z,10.73
2023-02-15T10:23:32.556Z,10.93
2023-02-15T10:26:12.458Z,11.77
2023-02-15T10:28:48.927Z,10.73
2023-02-15T10:31:27.329Z,11.33
2023-02-15T10:34:17.288Z,12.13
2023-02-15T10:37:28.066Z,11.43
2023-02-15T10:40:09.348Z,10.37
2023-02-15T10:42:57.598Z,11.40
2023-02-15T10:45:37.106Z,11.87
2023-02-15T10:48:24.788Z,12.32
2023-02-15T10:50:56.455Z,11.18
2023-02-15T10:54:04.272Z,10.40
2023-02-15T10:56:41.899Z,12.10
2023-02-15T10:59:44.348Z,11.32
2023-02-15T11:02:22.916Z,11.18
2023-02-15T11:05:01.434Z,11.63
2023-02-15T11:07:36.967Z,12.07
2023-02-15T11:10:24.678Z,11.23
2023-02-15T11:12:58.294Z,12.20
2023-02-15T11:15:35.397Z,11.95
2023-02-15T11:18:15.031Z,12.25
2023-02-15T11:20:54.504Z,12.30
2023-02-15T11:23:24.559Z,11.05
2023-02-15T11:26:00.384Z,12.07
2023-02-15T11:28:39.001Z,13.23
2023-02-15T11:31:19.486Z,11.52
2023-02-15T11:33:53.474Z,12.40
2023-02-15T11:36:26.786Z,12.60
2023-02-15T11:39:04.705Z,12.52
2023-02-15T11:41:39.613Z,11.35
2023-02-15T11:44:18.582Z,14.25
2023-02-15T11:46:46.975Z,12.02
2023-02-15T11:49:28.193Z,11.38
2023-02-15T11:51:58.476Z,11.02
2023-02-15T11:54:31.712Z,11.52
2023-02-15T11:57:13.289Z,11.88
2023-02-15T11:59:49.273Z,12.32
2023-02-15T12:02:21.909Z,12.13
2023-02-15T12:04:56.024Z,12.50
2023-02-15T12:07:30.996Z,11.55
2023-02-15T12:10:12.706Z,11.82
2023-02-15T12:12:41.046Z,11.95
2023-02-15T12:15:13.604Z,10.85
2023-02-15T12:17:51.270Z,11.18
2023-02-15T12:20:33.743Z,12.95
2023-02-15T12:23:05.896Z,11.40
2023-02-15T12:25:41.785Z,12.48
2023-02-15T12:28:27.934Z,11.40
2023-02-15T12:30:59.512Z,11.60
2023-02-15T12:33:32.791Z,12.18
2023-02-15T12:36:10.931Z,11.70
2023-02-15T12:38:39.825Z,11.73
2023-02-15T12:41:26.097Z,12.02
2023-02-15T12:44:14.275Z,12.43
2023-02-15T12:46:45.871Z,11.63
2023-02-15T12:49:20.982Z,12.10
2023-02-15T12:51:52.386Z,11.45
2023-02-15T12:54:36.414Z,12.20
2023-02-15T12:57:27.281Z,11.73
2023-02-15T13:00:01.757Z,11.73
2023-02-15T13:02:43.211Z,11.68
2023-02-15T13:05:24.633Z,11.48
2023-02-15T13:07:58.758Z,12.43
2023-02-15T13:10:31.128Z,11.40
2023-02-15T13:13:00.356Z,11.02
2023-02-15T13:15:39.161Z,10.82
2023-02-15T13:18:18.935Z,11.23
2023-02-15T13:20:49.322Z,10.75
2023-02-15T13:23:29.448Z,10.98
2023-02-15T13:26:01.566Z,11.85
2023-02-15T13:28:46.759Z,10.30
2023-02-15T13:31:20.240Z,11.50
2023-02-15T13:33:55.285Z,10.98
2023-02-15T13:36:33.886Z,11.30
2023-02-15T13:39:17.531Z,10.43
2023-02-15T13:41:58.665Z,11.30
2023-02-15T13:44:55.835Z,9.90
2023-02-15T13:47:31.252Z,10.32
2023-02-15T13:50:23.417Z,10.40
2023-02-15T13:53:12.913Z,10.13
2023-02-15T13:55:49.516Z,10.10
2023-02-15T13:58:50.926Z,10.75
2023-02-15T14:01:30.306Z,9.75
2023-02-15T14:04:27.309Z,9.60
2023-02-15T14:07:35.631Z,10.43
2023-02-15T14:10:32.328Z,9.20
2023-02-15T14:13:32.608Z,10.77
2023-02-15T14:16:08.168Z,9.73
2023-02-15T14:18:44.583Z,9.65
2023-02-15T14:21:20.715Z,9.15
2023-02-15T14:24:10.987Z,8.85
2023-02-15T14:26:51.702Z,8.88
2023-02-15T14:29:40.085Z,8.55
2023-02-15T14:32:15.607Z,8.02
2023-02-15T14:34:52.348Z,8.43
2023-02-15T14:37:35.328Z,8.50
2023-02-15T14:40:32.390Z,7.72
2023-02-15T14:43:10.104Z,7.50
2023-02-15T14:45:47.650Z,7.93
2023-02-15T14:48:24.717Z,7.53
2023-02-15T14:50:53.188Z,7.30
2023-02-15T14:53:40.316Z,7.38
2023-02-15T14:56:23.334Z,7.72
2023-02-15T14:59:19.479Z,7.28
2023-02-15T15:01:59.795Z,7.45
2023-02-15T15:04:34.161Z,7.30
2023-02-15T15:07:16.326Z,6.90
2023-02-15T15:09:50.512Z,6.13
2023-02-15T15:12:41.969Z,6.40
2023-02-15T15:15:16.386Z,7.32
2023-02-15T15:18:02.050Z,6.28
2023-02-15T15:20:51.919Z,7.75
2023-02-15T15:23:46.656Z,7.03
2023-02-15T15:26:31.589Z,7.00
2023-02-15T15:29:03.616Z,6.47
2023-02-15T15:31:46.267Z,7.05
2023-02-15T15:35:02.908Z,6.80
2023-02-15T15:38:17.236Z,7.03
2023-02-15T15:41:18.335Z,7.00
2023-02-15T15:44:39.584Z,6.20
2023-02-15T15:47:37.491Z,6.82
2023-02-15T15:50:18.970Z,6.22
2023-02-15T15:52:51.547Z,6.85
2023-02-15T15:55:23.573Z,7.13
2023-02-15T15:57:55.782Z,7.72
2023-02-15T16:00:40.279Z,7.25
2023-02-15T16:03:17.227Z,7.45
2023-02-15T16:05:45.428Z,7.53
2023-02-15T16:08:13.700Z,7.05
2023-02-15T16:10:43.378Z,7.32
2023-02-15T16:13:16.490Z,7.03
2023-02-15T16:15:50.858Z,7.32
2023-02-15T16:18:22.061Z,7.18
2023-02-15T16:20:57.132Z,7.57
2023-02-15T16:24:00.282Z,7.55
2023-02-15T16:27:07.720Z,7.78
2023-02-15T16:29:36.670Z,7.68
2023-02-15T16:32:18.164Z,8.15
2023-02-15T16:34:55.338Z,7.25
2023-02-15T16:37:28.240Z,7.38
2023-02-15T16:39:57.519Z,7.95
2023-02-15T16:42:26.893Z,8.52
2023-02-15T16:45:04.336Z,8.00
2023-02-15T16:47:41.816Z,8.23
2023-02-15T16:50:22.777Z,7.78
2023-02-15T16:52:52.393Z,8.10
2023-02-15T16:55:25.529Z,7.40
2023-02-15T16:57:59.976Z,7.47
2023-02-15T17:00:34.242Z,7.68
2023-02-15T17:03:07.582Z,8.30
2023-02-15T17:05:45.967Z,8.10
2023-02-15T17:08:20.416Z,8.30
2023-02-15T17:11:13.623Z,8.15
2023-02-15T17:14:29.216Z,8.43
2023-02-15T17:17:04.904Z,8.15
2023-02-15T17:19:50.107Z,7.50
2023-02-15T17:22:23.908Z,7.75
2023-02-15T17:25:00.399Z,7.68
2023-02-15T17:27:33.976Z,8.23
2023-02-15T17:30:14.270Z,8.80
2023-02-15T17:32:56.605Z,7.78
2023-02-15T17:35:27.877Z,8.23
2023-02-15T17:38:08.630Z,8.40
2023-02-15T17:40:38.420Z,8.32
2023-02-15T17:43:08.965Z,8.63
2023-02-15T17:45:44.233Z,8.98
2023-02-15T17:48:23.977Z,8.30
2023-02-15T17:50:52.143Z,9.20
2023-02-15T17:53:21.012Z,8.55
2023-02-15T17:55:48.056Z,8.45
2023-02-15T17:58:19.313Z,9.10
2023-02-15T18:01:08.990Z,9.35
2023-02-15T18:04:04.040Z,9.05
2023-02-15T18:06:50.469Z,9.35
2023-02-15T18:09:38.642Z,8.80
2023-02-15T18:12:21.238Z,9.30
2023-02-15T18:14:50.028Z,9.70
2023-02-15T18:17:19.431Z,9.82
2023-02-15T18:19:49.445Z,8.43
2023-02-15T18:22:20.658Z,9.13
2023-02-15T18:24:50.201Z,8.95
2023-02-15T18:27:18.568Z,9.43
2023-02-15T18:29:47.006Z,10.40
2023-02-15T18:32:20.685Z,8.88
2023-02-15T18:34:52.200Z,10.63
2023-02-15T18:37:23.126Z,10.05
2023-02-15T18:39:54.331Z,10.55
2023-02-15T18:42:27.062Z,10.10
2023-02-15T18:44:58.613Z,10.43
2023-02-15T18:47:28.211Z,10.15
2023-02-15T18:49:57.819Z,9.55
2023-02-15T18:52:38.260Z,9.75
2023-02-15T18:55:19.152Z,9.40
2023-02-15T18:57:48.989Z,8.85
2023-02-15T19:00:20.438Z,9.98
2023-02-15T19:02:49.068Z,9.40
2023-02-15T19:05:19.207Z,9.63
2023-02-15T19:07:48.732Z,9.25
2023-02-15T19:10:21.150Z,9.13
2023-02-15T19:12:50.583Z,10.02
2023-02-15T19:15:22.324Z,8.90
2023-02-15T19:17:50.840Z,8.90
2023-02-15T19:20:23.901Z,8.82
2023-02-15T19:22:54.567Z,8.50
2023-02-15T19:25:26.828Z,9.52
2023-02-15T19:27:56.640Z,8.23
2023-02-15T19:30:29.720Z,7.82
2023-02-15T19:32:59.121Z,8.43
2023-02-15T19:35:34.777Z,8.40
2023-02-15T19:38:08.257Z,9.48
2023-02-15T19:40:37.339Z,9.50
2023-02-15T19:43:14.756Z,9.60
2023-02-15T19:45:43.209Z,8.48
2023-02-15T19:48:14.921Z,9.73
2023-02-15T19:50:47.141Z,10.68
2023-02-15T19:53:23.636Z,9.45
2023-02-15T19:55:53.132Z,10.57
2023-02-15T19:58:22.571Z,9.52
2023-02-15T20:00:52.709Z,10.07
2023-02-15T20:03:20.895Z,10.05
2023-02-15T20:05:50.501Z,9.98
2023-02-15T20:08:21.586Z,9.85
2023-02-15T20:10:50.587Z,9.02
2023-02-15T20:13:21.067Z,9.60
2023-02-15T20:15:50.751Z,9.85
2023-02-15T20:18:22.245Z,9.27
2023-02-15T20:20:54.864Z,10.05
2023-02-15T20:23:30.428Z,9.48
2023-02-15T20:26:03.953Z,8.50
2023-02-15T20:28:32.911Z,9.07
2023-02-15T20:31:01.344Z,9.15
2023-02-15T20:33:29.943Z,8.65
2023-02-15T20:36:00.675Z,9.15
2023-02-15T20:38:32.706Z,9.40
2023-02-15T20:41:19.928Z,9.95
2023-02-15T20:43:48.484Z,9.63
2023-02-15T20:46:16.737Z,9.55
2023-02-15T20:48:44.994Z,8.80
2023-02-15T20:51:18.939Z,9.27
2023-02-15T20:53:47.454Z,8.93
2023-02-15T20:56:20.197Z,9.33
2023-02-15T20:58:48.404Z,8.75
2023-02-15T21:01:19.677Z,9.40
2023-02-15T21:03:49.173Z,8.50
2023-02-15T21:06:19.457Z,9.13
2023-02-15T21:08:47.567Z,8.77
2023-02-15T21:11:21.786Z,9.10
2023-02-15T21:13:51.351Z,8.93
2023-02-15T21:16:19.956Z,8.85
2023-02-15T21:18:48.090Z,8.97
2023-02-15T21:21:24.372Z,8.20
2023-02-15T21:23:54.291Z,8.27
2023-02-15T21:26:23.967Z,7.78
2023-02-15T21:28:52.524Z,9.07
2023-02-15T21:31:24.723Z,9.30
2023-02-15T21:33:53.291Z,8.43
2023-02-15T21:36:25.579Z,8.57
2023-02-15T21:38:54.544Z,9.70
2023-02-15T21:41:42.795Z,8.87
2023-02-15T21:44:32.821Z,9.67
2023-02-15T21:47:18.503Z,9.40
2023-02-15T21:49:46.580Z,9.07
2023-02-15T21:52:20.669Z,8.77
2023-02-15T21:54:48.922Z,9.30
2023-02-15T21:57:19.967Z,9.67
2023-02-15T21:59:49.951Z,8.70
2023-02-15T22:02:30.997Z,9.30
2023-02-15T22:05:00.144Z,9.93
2023-02-15T22:07:29.516Z,9.73
2023-02-15T22:09:57.605Z,8.47
2023-02-15T22:12:25.755Z,9.67
2023-02-15T22:14:55.282Z,8.70
2023-02-15T22:17:28.902Z,8.43
2023-02-15T22:19:58.352Z,8.93
2023-02-15T22:22:26.811Z,8.67
2023-02-15T22:24:56.212Z,8.83
2023-02-15T22:27:27.228Z,8.53
2023-02-15T22:29:56.350Z,8.47
2023-02-15T22:32:27.433Z,9.13
2023-02-15T22:34:56.218Z,8.87
2023-02-15T22:37:24.249Z,8.93
2023-02-15T22:39:52.274Z,8.97
2023-02-15T22:42:26.127Z,9.23
2023-02-15T22:44:56.926Z,9.10
2023-02-15T22:47:28.268Z,9.37
2023-02-15T22:49:56.781Z,8.03
2023-02-15T22:52:25.940Z,8.73
2023-02-15T22:54:54.048Z,9.20
2023-02-15T22:57:30.454Z,8.53
2023-02-15T22:59:59.356Z,8.50
2023-02-15T23:02:27.890Z,8.83
2023-02-15T23:04:56.016Z,8.80
2023-02-15T23:07:24.087Z,8.80
2023-02-15T23:09:52.190Z,8.67
2023-02-15T23:12:49.497Z,8.63
2023-02-15T23:15:17.853Z,8.70
2023-02-15T23:17:45.991Z,9.10
2023-02-15T23:20:14.982Z,8.57
2023-02-15T23:22:44.221Z,8.57
2023-02-15T23:25:13.381Z,8.80
2023-02-15T23:27:58.085Z,8.90
2023-02-15T23:30:26.516Z,9.10
2023-02-15T23:32:57.274Z,9.00
2023-02-15T23:35:25.819Z,8.73
2023-02-15T23:37:53.844Z,9.07
2023-02-15T23:40:40.669Z,8.40
2023-02-15T23:43:22.196Z,8.87
2023-02-15T23:45:50.319Z,8.47
2023-02-15T23:48:31.424Z,8.83
2023-02-15T23:51:00.622Z,9.07
2023-02-15T23:53:29.523Z,8.83
2023-02-15T23:55:58.747Z,9.40
2023-02-15T23:58:38.225Z,8.80
